< < Back
Terminal Aerodrome Forecast


Current Version              Previous Versions:   1  2  3  4  5  6  7  8  9  

Terminal Aerodrome Forecast

879
FTUS42 KTAE 261732
TAFDHN
TAF
KDHN 261732Z 2618/2718 VRB05KT P6SM SCT050 SCT250
     FM270100 VRB03KT P6SM SCT250
     FM271500 11007KT P6SM SCT250=



Latest METAR

252
SAUS70 KWBC 270200 RRG
MTRDHN
METAR KDHN 270153Z AUTO 21007KT 10SM FEW060 SCT070 26/19 A3011 RMK AO2
SLP191 T02610189


USA.gov is the U.S. government's official web portal to all federal, state and local government web resources and services.